sensor_id;sensor_type;location;lat;lon;timestamp;P1;durP1;ratioP1;P2;durP2;ratioP2
2313;SDS011;42279;51.388;7.000;2023-08-12T00:01:41;42.47;;;37.67;;
2313;SDS011;42279;51.388;7.000;2023-08-12T00:04:07;39.43;;;35.50;;
2313;SDS011;42279;51.388;7.000;2023-08-12T00:06:33;38.70;;;35.07;;
2313;SDS011;42279;51.388;7.000;2023-08-12T00:08:59;42.30;;;38.10;;
2313;SDS011;42279;51.388;7.000;2023-08-12T00:11:25;40.80;;;36.60;;
2313;SDS011;42279;51.388;7.000;2023-08-12T00:13:51;39.87;;;35.77;;
2313;SDS011;42279;51.388;7.000;2023-08-12T00:16:17;40.27;;;36.50;;
2313;SDS011;42279;51.388;7.000;2023-08-12T00:18:43;42.00;;;37.50;;
2313;SDS011;42279;51.388;7.000;2023-08-12T00:21:09;40.27;;;35.87;;
2313;SDS011;42279;51.388;7.000;2023-08-12T00:23:37;41.23;;;36.87;;
2313;SDS011;42279;51.388;7.000;2023-08-12T00:26:03;40.10;;;36.20;;
2313;SDS011;42279;51.388;7.000;2023-08-12T00:28:29;40.80;;;36.60;;
2313;SDS011;42279;51.388;7.000;2023-08-12T00:30:55;36.77;;;33.30;;
2313;SDS011;42279;51.388;7.000;2023-08-12T00:33:21;32.13;;;29.30;;
2313;SDS011;42279;51.388;7.000;2023-08-12T00:35:47;32.87;;;29.77;;
2313;SDS011;42279;51.388;7.000;2023-08-12T00:38:13;35.20;;;31.80;;
2313;SDS011;42279;51.388;7.000;2023-08-12T00:40:39;35.00;;;31.30;;
2313;SDS011;42279;51.388;7.000;2023-08-12T00:43:05;33.57;;;29.13;;
2313;SDS011;42279;51.388;7.000;2023-08-12T00:45:31;31.33;;;27.20;;
2313;SDS011;42279;51.388;7.000;2023-08-12T00:48:01;34.37;;;30.40;;
2313;SDS011;42279;51.388;7.000;2023-08-12T00:50:27;37.03;;;33.17;;
2313;SDS011;42279;51.388;7.000;2023-08-12T00:52:54;34.73;;;30.87;;
2313;SDS011;42279;51.388;7.000;2023-08-12T00:55:20;35.00;;;30.63;;
2313;SDS011;42279;51.388;7.000;2023-08-12T00:57:46;33.27;;;29.60;;
2313;SDS011;42279;51.388;7.000;2023-08-12T01:03:15;34.33;;;31.00;;
2313;SDS011;42279;51.388;7.000;2023-08-12T01:05:41;38.77;;;34.83;;
2313;SDS011;42279;51.388;7.000;2023-08-12T01:08:07;40.33;;;35.40;;
2313;SDS011;42279;51.388;7.000;2023-08-12T01:10:35;39.70;;;35.70;;
2313;SDS011;42279;51.388;7.000;2023-08-12T01:13:07;41.93;;;36.23;;
2313;SDS011;42279;51.388;7.000;2023-08-12T01:15:34;36.90;;;31.60;;
2313;SDS011;42279;51.388;7.000;2023-08-12T01:18:01;30.10;;;27.13;;
2313;SDS011;42279;51.388;7.000;2023-08-12T01:20:27;31.47;;;26.63;;
2313;SDS011;42279;51.388;7.000;2023-08-12T01:23:16;35.40;;;31.07;;
2313;SDS011;42279;51.388;7.000;2023-08-12T01:25:42;44.20;;;34.40;;
2313;SDS011;42279;51.388;7.000;2023-08-12T01:28:08;46.13;;;38.10;;
2313;SDS011;42279;51.388;7.000;2023-08-12T01:30:35;47.23;;;38.80;;
2313;SDS011;42279;51.388;7.000;2023-08-12T01:33:09;45.00;;;36.73;;
2313;SDS011;42279;51.388;7.000;2023-08-12T01:35:38;41.87;;;31.87;;
2313;SDS011;42279;51.388;7.000;2023-08-12T01:38:06;26.33;;;23.70;;
2313;SDS011;42279;51.388;7.000;2023-08-12T01:40:35;29.37;;;26.47;;
2313;SDS011;42279;51.388;7.000;2023-08-12T01:43:01;25.77;;;23.43;;
2313;SDS011;42279;51.388;7.000;2023-08-12T01:45:30;36.20;;;30.13;;
2313;SDS011;42279;51.388;7.000;2023-08-12T01:47:57;46.90;;;36.43;;
2313;SDS011;42279;51.388;7.000;2023-08-12T01:50:23;52.80;;;40.60;;
2313;SDS011;42279;51.388;7.000;2023-08-12T01:55:54;41.90;;;35.13;;
2313;SDS011;42279;51.388;7.000;2023-08-12T01:58:20;45.57;;;35.63;;
2313;SDS011;42279;51.388;7.000;2023-08-12T02:00:46;45.07;;;34.50;;
2313;SDS011;42279;51.388;7.000;2023-08-12T02:03:12;45.03;;;34.13;;
2313;SDS011;42279;51.388;7.000;2023-08-12T02:05:38;47.70;;;36.13;;
2313;SDS011;42279;51.388;7.000;2023-08-12T02:08:05;47.70;;;35.03;;
2313;SDS011;42279;51.388;7.000;2023-08-12T02:10:32;47.37;;;35.40;;
2313;SDS011;42279;51.388;7.000;2023-08-12T02:12:58;47.00;;;36.87;;
2313;SDS011;42279;51.388;7.000;2023-08-12T02:15:24;47.67;;;35.10;;
2313;SDS011;42279;51.388;7.000;2023-08-12T02:17:50;53.23;;;36.80;;
2313;SDS011;42279;51.388;7.000;2023-08-12T02:20:16;54.33;;;36.93;;
2313;SDS011;42279;51.388;7.000;2023-08-12T02:22:42;56.30;;;35.40;;
2313;SDS011;42279;51.388;7.000;2023-08-12T02:25:08;50.00;;;33.60;;
2313;SDS011;42279;51.388;7.000;2023-08-12T02:27:34;57.00;;;35.60;;
2313;SDS011;42279;51.388;7.000;2023-08-12T02:30:00;51.27;;;32.57;;
2313;SDS011;42279;51.388;7.000;2023-08-12T02:32:26;59.40;;;36.13;;
2313;SDS011;42279;51.388;7.000;2023-08-12T02:34:52;47.87;;;33.50;;
2313;SDS011;42279;51.388;7.000;2023-08-12T02:37:18;47.03;;;33.90;;
2313;SDS011;42279;51.388;7.000;2023-08-12T02:39:44;55.40;;;35.70;;
2313;SDS011;42279;51.388;7.000;2023-08-12T02:42:10;55.37;;;35.10;;
2313;SDS011;42279;51.388;7.000;2023-08-12T02:44:36;58.53;;;34.90;;
2313;SDS011;42279;51.388;7.000;2023-08-12T02:47:02;52.30;;;33.63;;
2313;SDS011;42279;51.388;7.000;2023-08-12T02:49:28;54.40;;;34.87;;
2313;SDS011;42279;51.388;7.000;2023-08-12T02:51:54;43.33;;;31.00;;
2313;SDS011;42279;51.388;7.000;2023-08-12T02:54:20;40.43;;;29.70;;
2313;SDS011;42279;51.388;7.000;2023-08-12T02:56:46;41.97;;;30.70;;
2313;SDS011;42279;51.388;7.000;2023-08-12T02:59:12;43.00;;;29.80;;
2313;SDS011;42279;51.388;7.000;2023-08-12T03:01:40;35.70;;;27.43;;
2313;SDS011;42279;51.388;7.000;2023-08-12T03:04:06;36.67;;;29.53;;
2313;SDS011;42279;51.388;7.000;2023-08-12T03:06:32;40.07;;;29.63;;
2313;SDS011;42279;51.388;7.000;2023-08-12T03:08:58;38.10;;;30.17;;
2313;SDS011;42279;51.388;7.000;2023-08-12T03:11:24;38.30;;;30.10;;
2313;SDS011;42279;51.388;7.000;2023-08-12T03:13:50;35.70;;;26.37;;
2313;SDS011;42279;51.388;7.000;2023-08-12T03:16:16;35.43;;;28.73;;
2313;SDS011;42279;51.388;7.000;2023-08-12T03:18:42;34.80;;;26.70;;
2313;SDS011;42279;51.388;7.000;2023-08-12T03:21:08;34.40;;;26.10;;
2313;SDS011;42279;51.388;7.000;2023-08-12T03:23:35;34.77;;;26.80;;
2313;SDS011;42279;51.388;7.000;2023-08-12T03:26:01;31.03;;;26.00;;
2313;SDS011;42279;51.388;7.000;2023-08-12T03:28:27;36.87;;;27.10;;
2313;SDS011;42279;51.388;7.000;2023-08-12T03:30:53;41.20;;;28.70;;
2313;SDS011;42279;51.388;7.000;2023-08-12T03:33:19;41.80;;;29.70;;
2313;SDS011;42279;51.388;7.000;2023-08-12T03:35:46;36.13;;;28.00;;
2313;SDS011;42279;51.388;7.000;2023-08-12T03:38:12;33.23;;;27.67;;
2313;SDS011;42279;51.388;7.000;2023-08-12T03:40:39;31.60;;;25.33;;
2313;SDS011;42279;51.388;7.000;2023-08-12T03:43:05;34.60;;;25.77;;
2313;SDS011;42279;51.388;7.000;2023-08-12T03:45:31;30.90;;;26.97;;
2313;SDS011;42279;51.388;7.000;2023-08-12T03:47:57;32.30;;;25.67;;
2313;SDS011;42279;51.388;7.000;2023-08-12T03:50:23;31.43;;;26.00;;
2313;SDS011;42279;51.388;7.000;2023-08-12T03:52:49;33.07;;;26.30;;
2313;SDS011;42279;51.388;7.000;2023-08-12T03:55:15;31.90;;;25.70;;
2313;SDS011;42279;51.388;7.000;2023-08-12T03:57:41;36.80;;;27.70;;
2313;SDS011;42279;51.388;7.000;2023-08-12T04:00:07;33.10;;;26.27;;
2313;SDS011;42279;51.388;7.000;2023-08-12T04:02:33;28.57;;;25.37;;
2313;SDS011;42279;51.388;7.000;2023-08-12T04:04:59;27.00;;;24.30;;
2313;SDS011;42279;51.388;7.000;2023-08-12T04:07:25;26.47;;;23.80;;
2313;SDS011;42279;51.388;7.000;2023-08-12T04:09:52;25.57;;;22.90;;
2313;SDS011;42279;51.388;7.000;2023-08-12T04:12:18;25.20;;;22.60;;
2313;SDS011;42279;51.388;7.000;2023-08-12T04:14:44;27.10;;;24.30;;
2313;SDS011;42279;51.388;7.000;2023-08-12T04:17:10;25.93;;;23.23;;
2313;SDS011;42279;51.388;7.000;2023-08-12T04:19:36;26.60;;;23.90;;
2313;SDS011;42279;51.388;7.000;2023-08-12T04:22:02;28.13;;;23.90;;
2313;SDS011;42279;51.388;7.000;2023-08-12T04:24:28;26.10;;;23.37;;
2313;SDS011;42279;51.388;7.000;2023-08-12T04:26:54;26.03;;;23.30;;
2313;SDS011;42279;51.388;7.000;2023-08-12T04:29:20;25.90;;;23.40;;
2313;SDS011;42279;51.388;7.000;2023-08-12T04:31:46;26.90;;;23.87;;
2313;SDS011;42279;51.388;7.000;2023-08-12T04:34:12;24.80;;;22.30;;
2313;SDS011;42279;51.388;7.000;2023-08-12T04:36:38;22.50;;;20.30;;
2313;SDS011;42279;51.388;7.000;2023-08-12T04:39:04;23.53;;;21.10;;
2313;SDS011;42279;51.388;7.000;2023-08-12T04:41:30;23.20;;;20.97;;
2313;SDS011;42279;51.388;7.000;2023-08-12T04:43:56;23.80;;;21.60;;
2313;SDS011;42279;51.388;7.000;2023-08-12T04:46:22;23.17;;;20.73;;
2313;SDS011;42279;51.388;7.000;2023-08-12T04:48:48;22.97;;;20.87;;
2313;SDS011;42279;51.388;7.000;2023-08-12T04:51:14;24.07;;;21.77;;
2313;SDS011;42279;51.388;7.000;2023-08-12T04:53:40;23.40;;;21.10;;
2313;SDS011;42279;51.388;7.000;2023-08-12T04:56:06;24.03;;;21.80;;
2313;SDS011;42279;51.388;7.000;2023-08-12T04:58:32;21.70;;;19.47;;
2313;SDS011;42279;51.388;7.000;2023-08-12T05:00:58;22.23;;;20.33;;
2313;SDS011;42279;51.388;7.000;2023-08-12T05:03:24;23.60;;;21.30;;
2313;SDS011;42279;51.388;7.000;2023-08-12T05:05:51;21.00;;;19.10;;
2313;SDS011;42279;51.388;7.000;2023-08-12T05:08:17;20.47;;;18.77;;
2313;SDS011;42279;51.388;7.000;2023-08-12T05:10:43;19.63;;;17.83;;
2313;SDS011;42279;51.388;7.000;2023-08-12T05:13:09;18.60;;;17.20;;
2313;SDS011;42279;51.388;7.000;2023-08-12T05:15:35;19.80;;;17.97;;
2313;SDS011;42279;51.388;7.000;2023-08-12T05:18:02;18.73;;;17.13;;
2313;SDS011;42279;51.388;7.000;2023-08-12T05:20:28;18.60;;;17.00;;
2313;SDS011;42279;51.388;7.000;2023-08-12T05:22:54;18.10;;;16.60;;
2313;SDS011;42279;51.388;7.000;2023-08-12T05:25:20;19.37;;;17.73;;
2313;SDS011;42279;51.388;7.000;2023-08-12T05:27:46;19.50;;;17.40;;
2313;SDS011;42279;51.388;7.000;2023-08-12T05:30:12;20.40;;;18.50;;
2313;SDS011;42279;51.388;7.000;2023-08-12T05:32:38;20.77;;;18.97;;
2313;SDS011;42279;51.388;7.000;2023-08-12T05:35:04;21.47;;;19.57;;
2313;SDS011;42279;51.388;7.000;2023-08-12T05:37:30;21.80;;;19.70;;
2313;SDS011;42279;51.388;7.000;2023-08-12T05:39:56;19.80;;;18.07;;
2313;SDS011;42279;51.388;7.000;2023-08-12T05:42:22;19.67;;;18.00;;
2313;SDS011;42279;51.388;7.000;2023-08-12T05:44:48;15.87;;;14.70;;
2313;SDS011;42279;51.388;7.000;2023-08-12T05:47:14;16.50;;;15.20;;
2313;SDS011;42279;51.388;7.000;2023-08-12T05:49:40;14.00;;;12.90;;
2313;SDS011;42279;51.388;7.000;2023-08-12T05:52:07;14.70;;;9.50;;
2313;SDS011;42279;51.388;7.000;2023-08-12T05:54:33;12.10;;;11.30;;
2313;SDS011;42279;51.388;7.000;2023-08-12T05:56:59;10.13;;;9.63;;
2313;SDS011;42279;51.388;7.000;2023-08-12T05:59:25;11.27;;;10.27;;
2313;SDS011;42279;51.388;7.000;2023-08-12T06:01:51;12.07;;;11.07;;
2313;SDS011;42279;51.388;7.000;2023-08-12T06:04:17;12.53;;;11.33;;
2313;SDS011;42279;51.388;7.000;2023-08-12T06:06:43;11.73;;;10.83;;
2313;SDS011;42279;51.388;7.000;2023-08-12T06:09:09;12.80;;;11.70;;
2313;SDS011;42279;51.388;7.000;2023-08-12T06:11:35;11.53;;;10.80;;
2313;SDS011;42279;51.388;7.000;2023-08-12T06:14:01;10.63;;;9.73;;
2313;SDS011;42279;51.388;7.000;2023-08-12T06:16:27;10.27;;;9.67;;
2313;SDS011;42279;51.388;7.000;2023-08-12T06:18:53;12.70;;;11.47;;
2313;SDS011;42279;51.388;7.000;2023-08-12T06:21:19;11.73;;;10.90;;
2313;SDS011;42279;51.388;7.000;2023-08-12T06:23:45;12.33;;;11.43;;
2313;SDS011;42279;51.388;7.000;2023-08-12T06:26:11;13.67;;;12.43;;
2313;SDS011;42279;51.388;7.000;2023-08-12T06:28:37;11.73;;;11.07;;
2313;SDS011;42279;51.388;7.000;2023-08-12T06:31:03;12.27;;;11.20;;
2313;SDS011;42279;51.388;7.000;2023-08-12T06:33:29;11.10;;;10.23;;
2313;SDS011;42279;51.388;7.000;2023-08-12T06:35:55;10.03;;;9.43;;
2313;SDS011;42279;51.388;7.000;2023-08-12T06:38:21;10.43;;;9.53;;
2313;SDS011;42279;51.388;7.000;2023-08-12T06:40:47;11.33;;;10.33;;
2313;SDS011;42279;51.388;7.000;2023-08-12T06:43:13;10.17;;;9.30;;
2313;SDS011;42279;51.388;7.000;2023-08-12T06:45:39;11.20;;;10.20;;
2313;SDS011;42279;51.388;7.000;2023-08-12T06:48:05;12.37;;;11.47;;
2313;SDS011;42279;51.388;7.000;2023-08-12T06:50:31;10.23;;;9.47;;
2313;SDS011;42279;51.388;7.000;2023-08-12T06:52:58;10.03;;;9.53;;
2313;SDS011;42279;51.388;7.000;2023-08-12T06:55:24;9.30;;;8.80;;
2313;SDS011;42279;51.388;7.000;2023-08-12T06:57:50;10.13;;;9.53;;
2313;SDS011;42279;51.388;7.000;2023-08-12T07:00:16;10.53;;;9.83;;
2313;SDS011;42279;51.388;7.000;2023-08-12T07:02:42;21.87;;;20.00;;
2313;SDS011;42279;51.388;7.000;2023-08-12T07:05:08;13.50;;;12.60;;
2313;SDS011;42279;51.388;7.000;2023-08-12T07:07:34;8.47;;;8.10;;
2313;SDS011;42279;51.388;7.000;2023-08-12T07:10:00;9.20;;;8.70;;
2313;SDS011;42279;51.388;7.000;2023-08-12T07:12:26;8.60;;;8.00;;
2313;SDS011;42279;51.388;7.000;2023-08-12T07:14:52;7.63;;;7.27;;
2313;SDS011;42279;51.388;7.000;2023-08-12T07:17:18;8.30;;;7.87;;
2313;SDS011;42279;51.388;7.000;2023-08-12T07:19:44;7.43;;;6.93;;
2313;SDS011;42279;51.388;7.000;2023-08-12T07:22:10;8.27;;;7.63;;
2313;SDS011;42279;51.388;7.000;2023-08-12T07:24:36;7.60;;;7.20;;
2313;SDS011;42279;51.388;7.000;2023-08-12T07:27:02;8.23;;;7.90;;
2313;SDS011;42279;51.388;7.000;2023-08-12T07:29:28;7.60;;;7.10;;
2313;SDS011;42279;51.388;7.000;2023-08-12T07:31:54;6.57;;;6.07;;
2313;SDS011;42279;51.388;7.000;2023-08-12T07:34:20;7.47;;;7.17;;
2313;SDS011;42279;51.388;7.000;2023-08-12T07:36:46;7.10;;;6.80;;
2313;SDS011;42279;51.388;7.000;2023-08-12T07:39:12;8.30;;;7.90;;
2313;SDS011;42279;51.388;7.000;2023-08-12T07:41:38;7.33;;;7.03;;
2313;SDS011;42279;51.388;7.000;2023-08-12T07:44:04;7.50;;;7.10;;
2313;SDS011;42279;51.388;7.000;2023-08-12T07:46:30;7.23;;;6.93;;
2313;SDS011;42279;51.388;7.000;2023-08-12T07:48:56;7.20;;;6.90;;
2313;SDS011;42279;51.388;7.000;2023-08-12T07:51:22;8.97;;;8.30;;
2313;SDS011;42279;51.388;7.000;2023-08-12T07:53:48;8.20;;;7.80;;
2313;SDS011;42279;51.388;7.000;2023-08-12T07:56:15;8.70;;;8.20;;
2313;SDS011;42279;51.388;7.000;2023-08-12T07:58:41;8.47;;;8.17;;
2313;SDS011;42279;51.388;7.000;2023-08-12T08:01:07;9.77;;;9.17;;
2313;SDS011;42279;51.388;7.000;2023-08-12T08:03:34;8.43;;;7.97;;
2313;SDS011;42279;51.388;7.000;2023-08-12T08:06:00;8.20;;;7.80;;
2313;SDS011;42279;51.388;7.000;2023-08-12T08:08:26;10.30;;;9.63;;
2313;SDS011;42279;51.388;7.000;2023-08-12T08:10:52;10.40;;;9.70;;
2313;SDS011;42279;51.388;7.000;2023-08-12T08:13:18;9.57;;;8.77;;
2313;SDS011;42279;51.388;7.000;2023-08-12T08:20:56;8.83;;;8.47;;
2313;SDS011;42279;51.388;7.000;2023-08-12T08:23:22;8.90;;;8.37;;
2313;SDS011;42279;51.388;7.000;2023-08-12T08:25:48;10.07;;;9.50;;
2313;SDS011;42279;51.388;7.000;2023-08-12T08:28:15;9.17;;;8.77;;
2313;SDS011;42279;51.388;7.000;2023-08-12T08:30:43;9.37;;;8.97;;
2313;SDS011;42279;51.388;7.000;2023-08-12T08:33:11;9.00;;;8.60;;
2313;SDS011;42279;51.388;7.000;2023-08-12T08:35:37;10.63;;;9.87;;
2313;SDS011;42279;51.388;7.000;2023-08-12T08:38:03;15.97;;;14.70;;
2313;SDS011;42279;51.388;7.000;2023-08-12T08:40:29;9.30;;;8.70;;
2313;SDS011;42279;51.388;7.000;2023-08-12T08:42:55;10.53;;;9.83;;
2313;SDS011;42279;51.388;7.000;2023-08-12T08:45:25;8.90;;;8.40;;
2313;SDS011;42279;51.388;7.000;2023-08-12T08:47:52;10.27;;;9.73;;
2313;SDS011;42279;51.388;7.000;2023-08-12T08:50:18;10.97;;;10.27;;
2313;SDS011;42279;51.388;7.000;2023-08-12T08:52:44;11.03;;;10.43;;
2313;SDS011;42279;51.388;7.000;2023-08-12T08:55:11;12.30;;;11.60;;
2313;SDS011;42279;51.388;7.000;2023-08-12T08:57:37;10.20;;;9.60;;
2313;SDS011;42279;51.388;7.000;2023-08-12T09:00:04;8.43;;;8.03;;
2313;SDS011;42279;51.388;7.000;2023-08-12T09:02:34;7.07;;;6.87;;
2313;SDS011;42279;51.388;7.000;2023-08-12T09:05:01;7.60;;;7.27;;
2313;SDS011;42279;51.388;7.000;2023-08-12T09:07:28;7.63;;;7.33;;
2313;SDS011;42279;51.388;7.000;2023-08-12T09:09:55;9.20;;;8.70;;
2313;SDS011;42279;51.388;7.000;2023-08-12T09:12:22;20.03;;;18.30;;
2313;SDS011;42279;51.388;7.000;2023-08-12T09:14:48;8.03;;;7.70;;
2313;SDS011;42279;51.388;7.000;2023-08-12T09:17:14;6.97;;;6.77;;
2313;SDS011;42279;51.388;7.000;2023-08-12T09:19:41;7.00;;;6.57;;
2313;SDS011;42279;51.388;7.000;2023-08-12T09:22:07;5.90;;;5.60;;
2313;SDS011;42279;51.388;7.000;2023-08-12T09:24:36;5.87;;;5.63;;
2313;SDS011;42279;51.388;7.000;2023-08-12T09:27:02;6.00;;;5.80;;
2313;SDS011;42279;51.388;7.000;2023-08-12T09:29:30;6.83;;;6.53;;
2313;SDS011;42279;51.388;7.000;2023-08-12T09:32:08;6.10;;;5.67;;
2313;SDS011;42279;51.388;7.000;2023-08-12T09:34:35;6.40;;;6.17;;
2313;SDS011;42279;51.388;7.000;2023-08-12T09:37:02;5.60;;;5.50;;
2313;SDS011;42279;51.388;7.000;2023-08-12T09:39:28;7.40;;;7.07;;
2313;SDS011;42279;51.388;7.000;2023-08-12T09:41:55;13.57;;;12.30;;
2313;SDS011;42279;51.388;7.000;2023-08-12T09:44:23;4.80;;;4.70;;
2313;SDS011;42279;51.388;7.000;2023-08-12T09:46:51;4.60;;;4.40;;
2313;SDS011;42279;51.388;7.000;2023-08-12T09:49:21;4.90;;;4.60;;
2313;SDS011;42279;51.388;7.000;2023-08-12T09:51:47;4.60;;;4.40;;
2313;SDS011;42279;51.388;7.000;2023-08-12T09:54:13;3.83;;;3.80;;
2313;SDS011;42279;51.388;7.000;2023-08-12T09:56:39;3.90;;;3.80;;
2313;SDS011;42279;51.388;7.000;2023-08-12T09:59:06;3.80;;;3.60;;
2313;SDS011;42279;51.388;7.000;2023-08-12T10:01:32;2.93;;;2.93;;
2313;SDS011;42279;51.388;7.000;2023-08-12T10:03:58;3.27;;;3.07;;
2313;SDS011;42279;51.388;7.000;2023-08-12T10:06:24;2.90;;;2.90;;
2313;SDS011;42279;51.388;7.000;2023-08-12T10:08:51;3.10;;;2.97;;
2313;SDS011;42279;51.388;7.000;2023-08-12T10:11:19;3.00;;;2.90;;
2313;SDS011;42279;51.388;7.000;2023-08-12T10:13:46;2.60;;;2.53;;
2313;SDS011;42279;51.388;7.000;2023-08-12T10:16:13;3.27;;;3.03;;
2313;SDS011;42279;51.388;7.000;2023-08-12T10:18:42;2.50;;;2.40;;
2313;SDS011;42279;51.388;7.000;2023-08-12T10:21:09;2.13;;;2.13;;
2313;SDS011;42279;51.388;7.000;2023-08-12T10:23:38;2.57;;;2.43;;
2313;SDS011;42279;51.388;7.000;2023-08-12T10:26:06;1.90;;;1.90;;
2313;SDS011;42279;51.388;7.000;2023-08-12T10:28:33;2.40;;;2.30;;
2313;SDS011;42279;51.388;7.000;2023-08-12T10:31:02;2.13;;;2.03;;
2313;SDS011;42279;51.388;7.000;2023-08-12T10:33:28;2.47;;;2.27;;
2313;SDS011;42279;51.388;7.000;2023-08-12T10:35:56;3.10;;;3.10;;
2313;SDS011;42279;51.388;7.000;2023-08-12T10:38:22;3.13;;;3.03;;
2313;SDS011;42279;51.388;7.000;2023-08-12T10:40:51;2.80;;;2.70;;
2313;SDS011;42279;51.388;7.000;2023-08-12T10:43:18;3.40;;;3.30;;
2313;SDS011;42279;51.388;7.000;2023-08-12T10:45:49;4.67;;;4.47;;
2313;SDS011;42279;51.388;7.000;2023-08-12T10:50:45;3.20;;;3.10;;
2313;SDS011;42279;51.388;7.000;2023-08-12T10:53:22;5.03;;;4.70;;
2313;SDS011;42279;51.388;7.000;2023-08-12T10:55:49;26.43;;;20.23;;
2313;SDS011;42279;51.388;7.000;2023-08-12T10:58:28;9.27;;;8.43;;
2313;SDS011;42279;51.388;7.000;2023-08-12T11:00:54;6.20;;;5.80;;
2313;SDS011;42279;51.388;7.000;2023-08-12T11:03:21;4.17;;;4.07;;
2313;SDS011;42279;51.388;7.000;2023-08-12T11:05:47;3.20;;;3.20;;
2313;SDS011;42279;51.388;7.000;2023-08-12T11:08:13;2.40;;;2.30;;
2313;SDS011;42279;51.388;7.000;2023-08-12T11:10:40;2.50;;;2.50;;
2313;SDS011;42279;51.388;7.000;2023-08-12T11:13:09;2.43;;;2.43;;
2313;SDS011;42279;51.388;7.000;2023-08-12T11:15:36;1.60;;;1.60;;
2313;SDS011;42279;51.388;7.000;2023-08-12T11:18:09;2.10;;;2.00;;
2313;SDS011;42279;51.388;7.000;2023-08-12T11:20:36;1.93;;;1.83;;
2313;SDS011;42279;51.388;7.000;2023-08-12T11:23:03;1.50;;;1.47;;
2313;SDS011;42279;51.388;7.000;2023-08-12T11:25:30;1.10;;;1.10;;
2313;SDS011;42279;51.388;7.000;2023-08-12T11:27:56;1.70;;;1.70;;
2313;SDS011;42279;51.388;7.000;2023-08-12T11:30:22;5.00;;;1.30;;
2313;SDS011;42279;51.388;7.000;2023-08-12T11:32:49;1.37;;;1.37;;
2313;SDS011;42279;51.388;7.000;2023-08-12T11:35:16;1.20;;;1.20;;
2313;SDS011;42279;51.388;7.000;2023-08-12T11:37:43;1.50;;;1.50;;
2313;SDS011;42279;51.388;7.000;2023-08-12T11:40:10;1.07;;;1.07;;
2313;SDS011;42279;51.388;7.000;2023-08-12T11:42:40;1.80;;;1.80;;
2313;SDS011;42279;51.388;7.000;2023-08-12T11:45:07;3.70;;;1.30;;
2313;SDS011;42279;51.388;7.000;2023-08-12T11:47:36;1.70;;;1.70;;
2313;SDS011;42279;51.388;7.000;2023-08-12T11:50:02;1.30;;;1.30;;
2313;SDS011;42279;51.388;7.000;2023-08-12T11:52:29;1.50;;;1.50;;
2313;SDS011;42279;51.388;7.000;2023-08-12T11:54:55;1.80;;;1.77;;
2313;SDS011;42279;51.388;7.000;2023-08-12T11:57:25;1.73;;;1.63;;
2313;SDS011;42279;51.388;7.000;2023-08-12T12:00:02;1.60;;;1.60;;
2313;SDS011;42279;51.388;7.000;2023-08-12T12:02:30;2.50;;;2.30;;
2313;SDS011;42279;51.388;7.000;2023-08-12T12:04:56;1.80;;;1.80;;
2313;SDS011;42279;51.388;7.000;2023-08-12T12:07:25;1.90;;;1.90;;
2313;SDS011;42279;51.388;7.000;2023-08-12T12:09:52;1.60;;;1.60;;
2313;SDS011;42279;51.388;7.000;2023-08-12T12:12:22;2.20;;;1.70;;
2313;SDS011;42279;51.388;7.000;2023-08-12T12:14:52;1.83;;;1.83;;
2313;SDS011;42279;51.388;7.000;2023-08-12T12:17:20;1.40;;;1.40;;
2313;SDS011;42279;51.388;7.000;2023-08-12T12:19:47;1.30;;;1.30;;
2313;SDS011;42279;51.388;7.000;2023-08-12T12:22:13;2.07;;;2.07;;
2313;SDS011;42279;51.388;7.000;2023-08-12T12:24:45;1.60;;;1.50;;
2313;SDS011;42279;51.388;7.000;2023-08-12T12:27:11;1.23;;;1.23;;
2313;SDS011;42279;51.388;7.000;2023-08-12T12:29:37;1.20;;;1.20;;
2313;SDS011;42279;51.388;7.000;2023-08-12T12:32:03;3.40;;;2.73;;
2313;SDS011;42279;51.388;7.000;2023-08-12T12:34:29;3.03;;;2.90;;
2313;SDS011;42279;51.388;7.000;2023-08-12T12:36:55;3.40;;;2.63;;
2313;SDS011;42279;51.388;7.000;2023-08-12T12:39:21;2.50;;;2.50;;
2313;SDS011;42279;51.388;7.000;2023-08-12T12:41:48;2.67;;;2.60;;
2313;SDS011;42279;51.388;7.000;2023-08-12T12:44:14;28.63;;;25.83;;
2313;SDS011;42279;51.388;7.000;2023-08-12T12:46:40;3.70;;;3.40;;
2313;SDS011;42279;51.388;7.000;2023-08-12T12:49:06;5.10;;;4.33;;
2313;SDS011;42279;51.388;7.000;2023-08-12T12:51:39;4.50;;;4.30;;
2313;SDS011;42279;51.388;7.000;2023-08-12T12:54:05;6.07;;;5.57;;
2313;SDS011;42279;51.388;7.000;2023-08-12T12:56:34;5.83;;;5.63;;
2313;SDS011;42279;51.388;7.000;2023-08-12T12:59:03;7.20;;;6.80;;
2313;SDS011;42279;51.388;7.000;2023-08-12T13:01:29;6.13;;;5.83;;
2313;SDS011;42279;51.388;7.000;2023-08-12T13:03:55;7.10;;;6.70;;
2313;SDS011;42279;51.388;7.000;2023-08-12T13:06:21;5.67;;;5.57;;
2313;SDS011;42279;51.388;7.000;2023-08-12T13:08:47;7.03;;;6.67;;
2313;SDS011;42279;51.388;7.000;2023-08-12T13:11:14;5.33;;;5.23;;
2313;SDS011;42279;51.388;7.000;2023-08-12T13:13:40;5.50;;;5.23;;
2313;SDS011;42279;51.388;7.000;2023-08-12T13:16:06;6.30;;;6.07;;
2313;SDS011;42279;51.388;7.000;2023-08-12T13:18:35;7.10;;;6.80;;
2313;SDS011;42279;51.388;7.000;2023-08-12T13:21:02;7.70;;;7.30;;
2313;SDS011;42279;51.388;7.000;2023-08-12T13:23:37;9.20;;;8.67;;
2313;SDS011;42279;51.388;7.000;2023-08-12T13:26:10;5.60;;;5.40;;
2313;SDS011;42279;51.388;7.000;2023-08-12T13:28:36;4.90;;;4.60;;
2313;SDS011;42279;51.388;7.000;2023-08-12T13:31:02;5.90;;;5.60;;
2313;SDS011;42279;51.388;7.000;2023-08-12T13:33:28;5.53;;;5.27;;
2313;SDS011;42279;51.388;7.000;2023-08-12T13:35:54;5.93;;;5.57;;
2313;SDS011;42279;51.388;7.000;2023-08-12T13:38:20;4.67;;;4.57;;
2313;SDS011;42279;51.388;7.000;2023-08-12T13:40:46;6.10;;;5.90;;
2313;SDS011;42279;51.388;7.000;2023-08-12T13:43:12;5.93;;;5.83;;
2313;SDS011;42279;51.388;7.000;2023-08-12T13:45:39;6.63;;;6.23;;
2313;SDS011;42279;51.388;7.000;2023-08-12T13:48:05;6.40;;;6.30;;
2313;SDS011;42279;51.388;7.000;2023-08-12T13:50:31;6.93;;;6.63;;
2313;SDS011;42279;51.388;7.000;2023-08-12T13:52:58;8.63;;;8.27;;
2313;SDS011;42279;51.388;7.000;2023-08-12T13:55:24;8.67;;;7.93;;
2313;SDS011;42279;51.388;7.000;2023-08-12T13:57:50;7.70;;;7.00;;
2313;SDS011;42279;51.388;7.000;2023-08-12T14:00:17;5.60;;;5.30;;
2313;SDS011;42279;51.388;7.000;2023-08-12T14:02:43;4.60;;;4.37;;
2313;SDS011;42279;51.388;7.000;2023-08-12T14:05:10;5.00;;;4.90;;
2313;SDS011;42279;51.388;7.000;2023-08-12T14:07:36;5.30;;;5.20;;
2313;SDS011;42279;51.388;7.000;2023-08-12T14:10:03;4.40;;;4.40;;
2313;SDS011;42279;51.388;7.000;2023-08-12T14:12:29;4.10;;;4.10;;
2313;SDS011;42279;51.388;7.000;2023-08-12T14:14:55;4.73;;;4.67;;
2313;SDS011;42279;51.388;7.000;2023-08-12T14:17:21;4.80;;;4.60;;
2313;SDS011;42279;51.388;7.000;2023-08-12T14:19:48;5.07;;;4.87;;
2313;SDS011;42279;51.388;7.000;2023-08-12T14:22:15;4.60;;;4.60;;
2313;SDS011;42279;51.388;7.000;2023-08-12T14:24:41;4.40;;;4.40;;
2313;SDS011;42279;51.388;7.000;2023-08-12T14:27:09;4.03;;;4.03;;
2313;SDS011;42279;51.388;7.000;2023-08-12T14:29:35;4.30;;;4.20;;
2313;SDS011;42279;51.388;7.000;2023-08-12T14:32:01;5.07;;;4.80;;
2313;SDS011;42279;51.388;7.000;2023-08-12T14:34:27;6.13;;;5.73;;
2313;SDS011;42279;51.388;7.000;2023-08-12T14:36:53;4.80;;;4.70;;
2313;SDS011;42279;51.388;7.000;2023-08-12T14:39:19;4.70;;;4.60;;
2313;SDS011;42279;51.388;7.000;2023-08-12T14:41:46;6.37;;;6.07;;
2313;SDS011;42279;51.388;7.000;2023-08-12T14:44:13;5.13;;;5.03;;
2313;SDS011;42279;51.388;7.000;2023-08-12T14:46:40;6.37;;;5.87;;
2313;SDS011;42279;51.388;7.000;2023-08-12T14:49:06;4.87;;;4.80;;
2313;SDS011;42279;51.388;7.000;2023-08-12T14:51:32;4.30;;;4.20;;
2313;SDS011;42279;51.388;7.000;2023-08-12T14:53:58;4.57;;;4.47;;
2313;SDS011;42279;51.388;7.000;2023-08-12T14:56:24;6.50;;;6.30;;
2313;SDS011;42279;51.388;7.000;2023-08-12T14:58:50;4.10;;;3.93;;